sensor_id;sensor_type;location;lat;lon;timestamp;P1;durP1;ratioP1;P2;durP2;ratioP2
25057;SDS011;13057;50.978;11.034;2022-07-23T00:01:34;6.63;;;4.63;;
25057;SDS011;13057;50.978;11.034;2022-07-23T00:04:00;8.55;;;4.70;;
25057;SDS011;13057;50.978;11.034;2022-07-23T00:06:26;9.52;;;5.10;;
25057;SDS011;13057;50.978;11.034;2022-07-23T00:08:52;11.48;;;4.60;;
25057;SDS011;13057;50.978;11.034;2022-07-23T00:11:18;6.95;;;4.85;;
25057;SDS011;13057;50.978;11.034;2022-07-23T00:13:44;8.75;;;4.78;;
25057;SDS011;13057;50.978;11.034;2022-07-23T00:16:10;13.65;;;5.20;;
25057;SDS011;13057;50.978;11.034;2022-07-23T00:18:36;7.45;;;4.70;;
25057;SDS011;13057;50.978;11.034;2022-07-23T00:21:02;11.95;;;6.22;;
25057;SDS011;13057;50.978;11.034;2022-07-23T00:23:29;6.55;;;4.70;;
25057;SDS011;13057;50.978;11.034;2022-07-23T00:25:55;10.57;;;5.00;;
25057;SDS011;13057;50.978;11.034;2022-07-23T00:28:21;8.15;;;4.90;;
25057;SDS011;13057;50.978;11.034;2022-07-23T00:30:47;7.68;;;4.80;;
25057;SDS011;13057;50.978;11.034;2022-07-23T00:33:13;7.82;;;4.57;;
25057;SDS011;13057;50.978;11.034;2022-07-23T00:35:39;8.38;;;4.78;;
25057;SDS011;13057;50.978;11.034;2022-07-23T00:38:06;7.60;;;4.72;;
25057;SDS011;13057;50.978;11.034;2022-07-23T00:40:34;9.00;;;5.13;;
25057;SDS011;13057;50.978;11.034;2022-07-23T00:43:00;8.85;;;5.28;;
25057;SDS011;13057;50.978;11.034;2022-07-23T00:45:26;6.05;;;4.50;;
25057;SDS011;13057;50.978;11.034;2022-07-23T00:47:53;9.25;;;4.68;;
25057;SDS011;13057;50.978;11.034;2022-07-23T00:50:19;9.32;;;4.60;;
25057;SDS011;13057;50.978;11.034;2022-07-23T00:52:45;12.38;;;4.50;;
25057;SDS011;13057;50.978;11.034;2022-07-23T00:55:11;8.35;;;4.72;;
25057;SDS011;13057;50.978;11.034;2022-07-23T00:57:39;10.95;;;5.15;;
25057;SDS011;13057;50.978;11.034;2022-07-23T01:00:07;8.35;;;4.90;;
25057;SDS011;13057;50.978;11.034;2022-07-23T01:02:36;10.98;;;5.00;;
25057;SDS011;13057;50.978;11.034;2022-07-23T01:05:03;6.93;;;4.88;;
25057;SDS011;13057;50.978;11.034;2022-07-23T01:07:29;9.73;;;5.47;;
25057;SDS011;13057;50.978;11.034;2022-07-23T01:09:55;7.55;;;4.70;;
25057;SDS011;13057;50.978;11.034;2022-07-23T01:12:22;8.13;;;4.93;;
25057;SDS011;13057;50.978;11.034;2022-07-23T01:14:53;11.45;;;5.20;;
25057;SDS011;13057;50.978;11.034;2022-07-23T01:17:20;8.95;;;4.85;;
25057;SDS011;13057;50.978;11.034;2022-07-23T01:19:46;9.43;;;4.57;;
25057;SDS011;13057;50.978;11.034;2022-07-23T01:22:12;7.88;;;4.93;;
25057;SDS011;13057;50.978;11.034;2022-07-23T01:24:40;8.60;;;5.10;;
25057;SDS011;13057;50.978;11.034;2022-07-23T01:27:05;10.80;;;5.10;;
25057;SDS011;13057;50.978;11.034;2022-07-23T01:29:31;13.10;;;5.65;;
25057;SDS011;13057;50.978;11.034;2022-07-23T01:31:57;9.70;;;5.43;;
25057;SDS011;13057;50.978;11.034;2022-07-23T01:34:23;8.40;;;5.07;;
25057;SDS011;13057;50.978;11.034;2022-07-23T01:36:49;9.07;;;5.53;;
25057;SDS011;13057;50.978;11.034;2022-07-23T01:39:15;10.68;;;5.57;;
25057;SDS011;13057;50.978;11.034;2022-07-23T01:41:40;9.80;;;4.97;;
25057;SDS011;13057;50.978;11.034;2022-07-23T01:44:07;8.88;;;5.38;;
25057;SDS011;13057;50.978;11.034;2022-07-23T01:46:32;6.93;;;5.00;;
25057;SDS011;13057;50.978;11.034;2022-07-23T01:48:58;13.98;;;5.60;;
25057;SDS011;13057;50.978;11.034;2022-07-23T01:51:24;9.65;;;5.93;;
25057;SDS011;13057;50.978;11.034;2022-07-23T01:53:50;10.13;;;6.00;;
25057;SDS011;13057;50.978;11.034;2022-07-23T01:56:16;11.43;;;6.10;;
25057;SDS011;13057;50.978;11.034;2022-07-23T01:58:44;9.93;;;6.10;;
25057;SDS011;13057;50.978;11.034;2022-07-23T02:01:09;10.23;;;6.10;;
25057;SDS011;13057;50.978;11.034;2022-07-23T02:03:35;10.18;;;6.13;;
25057;SDS011;13057;50.978;11.034;2022-07-23T02:06:01;7.70;;;5.82;;
25057;SDS011;13057;50.978;11.034;2022-07-23T02:08:27;10.60;;;5.72;;
25057;SDS011;13057;50.978;11.034;2022-07-23T02:10:53;9.90;;;6.32;;
25057;SDS011;13057;50.978;11.034;2022-07-23T02:13:19;8.23;;;6.10;;
25057;SDS011;13057;50.978;11.034;2022-07-23T02:15:46;10.85;;;6.07;;
25057;SDS011;13057;50.978;11.034;2022-07-23T02:18:12;9.20;;;6.57;;
25057;SDS011;13057;50.978;11.034;2022-07-23T02:20:38;9.15;;;5.85;;
25057;SDS011;13057;50.978;11.034;2022-07-23T02:23:05;10.13;;;6.25;;
25057;SDS011;13057;50.978;11.034;2022-07-23T02:25:31;10.40;;;6.65;;
25057;SDS011;13057;50.978;11.034;2022-07-23T02:27:58;10.05;;;6.40;;
25057;SDS011;13057;50.978;11.034;2022-07-23T02:30:23;11.95;;;6.18;;
25057;SDS011;13057;50.978;11.034;2022-07-23T02:32:50;13.23;;;6.35;;
25057;SDS011;13057;50.978;11.034;2022-07-23T02:35:15;10.40;;;6.03;;
25057;SDS011;13057;50.978;11.034;2022-07-23T02:37:41;8.88;;;6.68;;
25057;SDS011;13057;50.978;11.034;2022-07-23T02:40:07;10.88;;;6.30;;
25057;SDS011;13057;50.978;11.034;2022-07-23T02:42:33;8.43;;;6.22;;
25057;SDS011;13057;50.978;11.034;2022-07-23T02:44:59;9.30;;;6.00;;
25057;SDS011;13057;50.978;11.034;2022-07-23T02:47:25;10.95;;;6.20;;
25057;SDS011;13057;50.978;11.034;2022-07-23T02:49:52;17.67;;;7.40;;
25057;SDS011;13057;50.978;11.034;2022-07-23T02:52:17;14.75;;;7.45;;
25057;SDS011;13057;50.978;11.034;2022-07-23T02:54:43;13.88;;;7.60;;
25057;SDS011;13057;50.978;11.034;2022-07-23T02:57:09;20.77;;;9.02;;
25057;SDS011;13057;50.978;11.034;2022-07-23T02:59:35;14.15;;;7.82;;
25057;SDS011;13057;50.978;11.034;2022-07-23T03:02:01;14.00;;;7.43;;
25057;SDS011;13057;50.978;11.034;2022-07-23T03:04:27;14.77;;;7.32;;
25057;SDS011;13057;50.978;11.034;2022-07-23T03:06:52;11.60;;;7.25;;
25057;SDS011;13057;50.978;11.034;2022-07-23T03:09:18;11.55;;;7.65;;
25057;SDS011;13057;50.978;11.034;2022-07-23T03:11:44;12.65;;;7.72;;
25057;SDS011;13057;50.978;11.034;2022-07-23T03:14:10;15.68;;;8.55;;
25057;SDS011;13057;50.978;11.034;2022-07-23T03:16:38;15.07;;;8.75;;
25057;SDS011;13057;50.978;11.034;2022-07-23T03:19:04;10.80;;;7.97;;
25057;SDS011;13057;50.978;11.034;2022-07-23T03:21:30;14.32;;;8.05;;
25057;SDS011;13057;50.978;11.034;2022-07-23T03:23:56;13.18;;;7.93;;
25057;SDS011;13057;50.978;11.034;2022-07-23T03:26:21;11.77;;;8.07;;
25057;SDS011;13057;50.978;11.034;2022-07-23T03:28:50;26.45;;;10.85;;
25057;SDS011;13057;50.978;11.034;2022-07-23T03:31:17;14.18;;;7.97;;
25057;SDS011;13057;50.978;11.034;2022-07-23T03:33:43;16.45;;;7.88;;
25057;SDS011;13057;50.978;11.034;2022-07-23T03:36:08;14.57;;;7.57;;
25057;SDS011;13057;50.978;11.034;2022-07-23T03:38:35;11.30;;;7.90;;
25057;SDS011;13057;50.978;11.034;2022-07-23T03:41:00;14.30;;;8.13;;
25057;SDS011;13057;50.978;11.034;2022-07-23T03:43:26;12.10;;;8.38;;
25057;SDS011;13057;50.978;11.034;2022-07-23T03:45:52;13.30;;;7.93;;
25057;SDS011;13057;50.978;11.034;2022-07-23T03:48:18;13.35;;;7.55;;
25057;SDS011;13057;50.978;11.034;2022-07-23T03:50:44;13.48;;;7.80;;
25057;SDS011;13057;50.978;11.034;2022-07-23T03:53:09;14.50;;;8.18;;
25057;SDS011;13057;50.978;11.034;2022-07-23T03:55:35;19.15;;;8.20;;
25057;SDS011;13057;50.978;11.034;2022-07-23T03:58:01;13.20;;;7.95;;
25057;SDS011;13057;50.978;11.034;2022-07-23T04:00:27;20.40;;;9.30;;
25057;SDS011;13057;50.978;11.034;2022-07-23T04:02:53;12.68;;;8.23;;
25057;SDS011;13057;50.978;11.034;2022-07-23T04:05:19;12.38;;;8.30;;
25057;SDS011;13057;50.978;11.034;2022-07-23T04:07:45;10.60;;;7.60;;
25057;SDS011;13057;50.978;11.034;2022-07-23T04:10:11;11.90;;;8.23;;
25057;SDS011;13057;50.978;11.034;2022-07-23T04:12:36;14.25;;;8.82;;
25057;SDS011;13057;50.978;11.034;2022-07-23T04:15:02;17.38;;;8.90;;
25057;SDS011;13057;50.978;11.034;2022-07-23T04:17:29;12.85;;;8.48;;
25057;SDS011;13057;50.978;11.034;2022-07-23T04:19:55;11.82;;;8.35;;
25057;SDS011;13057;50.978;11.034;2022-07-23T04:22:20;15.98;;;8.98;;
25057;SDS011;13057;50.978;11.034;2022-07-23T04:24:46;19.10;;;8.50;;
25057;SDS011;13057;50.978;11.034;2022-07-23T04:27:12;18.50;;;9.05;;
25057;SDS011;13057;50.978;11.034;2022-07-23T04:29:38;14.60;;;8.55;;
25057;SDS011;13057;50.978;11.034;2022-07-23T04:32:04;11.80;;;8.90;;
25057;SDS011;13057;50.978;11.034;2022-07-23T04:34:31;13.38;;;8.63;;
25057;SDS011;13057;50.978;11.034;2022-07-23T04:36:57;16.45;;;9.65;;
25057;SDS011;13057;50.978;11.034;2022-07-23T04:39:22;14.32;;;8.73;;
25057;SDS011;13057;50.978;11.034;2022-07-23T04:41:48;14.23;;;9.15;;
25057;SDS011;13057;50.978;11.034;2022-07-23T04:44:14;13.38;;;8.68;;
25057;SDS011;13057;50.978;11.034;2022-07-23T04:46:40;13.43;;;9.40;;
25057;SDS011;13057;50.978;11.034;2022-07-23T04:49:06;13.02;;;9.32;;
25057;SDS011;13057;50.978;11.034;2022-07-23T04:51:32;15.13;;;9.27;;
25057;SDS011;13057;50.978;11.034;2022-07-23T04:53:58;13.60;;;8.70;;
25057;SDS011;13057;50.978;11.034;2022-07-23T04:56:23;14.75;;;9.73;;
25057;SDS011;13057;50.978;11.034;2022-07-23T04:58:49;13.32;;;9.50;;
25057;SDS011;13057;50.978;11.034;2022-07-23T05:01:15;12.57;;;9.52;;
25057;SDS011;13057;50.978;11.034;2022-07-23T05:03:41;15.05;;;9.32;;
25057;SDS011;13057;50.978;11.034;2022-07-23T05:06:07;17.92;;;10.57;;
25057;SDS011;13057;50.978;11.034;2022-07-23T05:08:33;15.15;;;10.27;;
25057;SDS011;13057;50.978;11.034;2022-07-23T05:10:59;13.95;;;10.00;;
25057;SDS011;13057;50.978;11.034;2022-07-23T05:13:25;20.20;;;10.90;;
25057;SDS011;13057;50.978;11.034;2022-07-23T05:15:51;16.95;;;10.68;;
25057;SDS011;13057;50.978;11.034;2022-07-23T05:18:17;14.80;;;10.55;;
25057;SDS011;13057;50.978;11.034;2022-07-23T05:20:42;18.35;;;11.20;;
25057;SDS011;13057;50.978;11.034;2022-07-23T05:23:08;15.85;;;10.30;;
25057;SDS011;13057;50.978;11.034;2022-07-23T05:25:35;14.68;;;11.18;;
25057;SDS011;13057;50.978;11.034;2022-07-23T05:28:01;19.42;;;10.32;;
25057;SDS011;13057;50.978;11.034;2022-07-23T05:30:27;15.23;;;10.20;;
25057;SDS011;13057;50.978;11.034;2022-07-23T05:32:53;13.32;;;10.20;;
25057;SDS011;13057;50.978;11.034;2022-07-23T05:35:19;13.48;;;10.10;;
25057;SDS011;13057;50.978;11.034;2022-07-23T05:37:44;16.17;;;10.85;;
25057;SDS011;13057;50.978;11.034;2022-07-23T05:40:10;18.25;;;11.07;;
25057;SDS011;13057;50.978;11.034;2022-07-23T05:42:37;14.77;;;10.43;;
25057;SDS011;13057;50.978;11.034;2022-07-23T05:45:05;13.55;;;10.65;;
25057;SDS011;13057;50.978;11.034;2022-07-23T05:47:41;13.88;;;10.63;;
25057;SDS011;13057;50.978;11.034;2022-07-23T05:50:09;12.45;;;8.90;;
25057;SDS011;13057;50.978;11.034;2022-07-23T05:52:36;14.60;;;10.13;;
25057;SDS011;13057;50.978;11.034;2022-07-23T05:55:02;12.95;;;9.80;;
25057;SDS011;13057;50.978;11.034;2022-07-23T05:57:28;13.23;;;9.45;;
25057;SDS011;13057;50.978;11.034;2022-07-23T05:59:54;18.38;;;10.65;;
25057;SDS011;13057;50.978;11.034;2022-07-23T06:02:20;13.98;;;11.10;;
25057;SDS011;13057;50.978;11.034;2022-07-23T06:04:45;15.40;;;10.60;;
25057;SDS011;13057;50.978;11.034;2022-07-23T06:07:11;13.73;;;9.98;;
25057;SDS011;13057;50.978;11.034;2022-07-23T06:09:37;14.52;;;10.45;;
25057;SDS011;13057;50.978;11.034;2022-07-23T06:12:06;16.48;;;10.43;;
25057;SDS011;13057;50.978;11.034;2022-07-23T06:14:32;13.73;;;9.65;;
25057;SDS011;13057;50.978;11.034;2022-07-23T06:16:58;14.18;;;9.63;;
25057;SDS011;13057;50.978;11.034;2022-07-23T06:19:24;12.73;;;9.50;;
25057;SDS011;13057;50.978;11.034;2022-07-23T06:21:51;14.05;;;9.68;;
25057;SDS011;13057;50.978;11.034;2022-07-23T06:24:17;15.52;;;10.15;;
25057;SDS011;13057;50.978;11.034;2022-07-23T06:26:43;12.45;;;8.80;;
25057;SDS011;13057;50.978;11.034;2022-07-23T06:29:09;12.65;;;8.93;;
25057;SDS011;13057;50.978;11.034;2022-07-23T06:31:36;14.82;;;9.70;;
25057;SDS011;13057;50.978;11.034;2022-07-23T06:34:02;13.50;;;10.05;;
25057;SDS011;13057;50.978;11.034;2022-07-23T06:36:28;12.55;;;9.95;;
25057;SDS011;13057;50.978;11.034;2022-07-23T06:38:54;12.80;;;9.73;;
25057;SDS011;13057;50.978;11.034;2022-07-23T06:41:20;13.60;;;9.90;;
25057;SDS011;13057;50.978;11.034;2022-07-23T06:43:47;12.70;;;9.63;;
25057;SDS011;13057;50.978;11.034;2022-07-23T06:46:13;14.45;;;9.32;;
25057;SDS011;13057;50.978;11.034;2022-07-23T06:48:39;16.52;;;10.05;;
25057;SDS011;13057;50.978;11.034;2022-07-23T06:51:05;16.48;;;10.68;;
25057;SDS011;13057;50.978;11.034;2022-07-23T06:53:31;18.90;;;9.98;;
25057;SDS011;13057;50.978;11.034;2022-07-23T06:55:57;13.98;;;9.70;;
25057;SDS011;13057;50.978;11.034;2022-07-23T06:58:23;18.27;;;10.60;;
25057;SDS011;13057;50.978;11.034;2022-07-23T07:00:49;15.18;;;10.52;;
25057;SDS011;13057;50.978;11.034;2022-07-23T07:03:16;14.25;;;10.02;;
25057;SDS011;13057;50.978;11.034;2022-07-23T07:05:42;13.65;;;10.15;;
25057;SDS011;13057;50.978;11.034;2022-07-23T07:08:08;16.10;;;9.90;;
25057;SDS011;13057;50.978;11.034;2022-07-23T07:10:36;13.27;;;9.75;;
25057;SDS011;13057;50.978;11.034;2022-07-23T07:13:02;13.52;;;10.20;;
25057;SDS011;13057;50.978;11.034;2022-07-23T07:15:34;15.70;;;10.23;;
25057;SDS011;13057;50.978;11.034;2022-07-23T07:18:00;15.48;;;9.95;;
25057;SDS011;13057;50.978;11.034;2022-07-23T07:20:29;15.68;;;10.20;;
25057;SDS011;13057;50.978;11.034;2022-07-23T07:22:54;15.93;;;10.65;;
25057;SDS011;13057;50.978;11.034;2022-07-23T07:25:20;18.80;;;11.20;;
25057;SDS011;13057;50.978;11.034;2022-07-23T07:27:46;15.45;;;9.68;;
25057;SDS011;13057;50.978;11.034;2022-07-23T07:30:12;14.82;;;10.38;;
25057;SDS011;13057;50.978;11.034;2022-07-23T07:32:38;18.55;;;10.45;;
25057;SDS011;13057;50.978;11.034;2022-07-23T07:35:04;15.10;;;10.02;;
25057;SDS011;13057;50.978;11.034;2022-07-23T07:37:30;14.32;;;9.95;;
25057;SDS011;13057;50.978;11.034;2022-07-23T07:39:57;13.55;;;10.15;;
25057;SDS011;13057;50.978;11.034;2022-07-23T07:42:22;16.48;;;10.50;;
25057;SDS011;13057;50.978;11.034;2022-07-23T07:44:48;15.00;;;10.43;;
25057;SDS011;13057;50.978;11.034;2022-07-23T07:47:14;13.60;;;10.52;;
25057;SDS011;13057;50.978;11.034;2022-07-23T07:49:41;14.50;;;10.90;;
25057;SDS011;13057;50.978;11.034;2022-07-23T07:52:07;14.88;;;9.90;;
25057;SDS011;13057;50.978;11.034;2022-07-23T07:54:33;15.70;;;10.90;;
25057;SDS011;13057;50.978;11.034;2022-07-23T07:56:59;13.80;;;10.00;;
25057;SDS011;13057;50.978;11.034;2022-07-23T07:59:25;11.82;;;8.65;;
25057;SDS011;13057;50.978;11.034;2022-07-23T08:01:51;13.05;;;8.75;;
25057;SDS011;13057;50.978;11.034;2022-07-23T08:04:17;12.90;;;8.65;;
25057;SDS011;13057;50.978;11.034;2022-07-23T08:06:44;10.73;;;7.97;;
25057;SDS011;13057;50.978;11.034;2022-07-23T08:09:10;11.90;;;8.05;;
25057;SDS011;13057;50.978;11.034;2022-07-23T08:11:35;13.13;;;8.27;;
25057;SDS011;13057;50.978;11.034;2022-07-23T08:14:02;11.93;;;7.65;;
25057;SDS011;13057;50.978;11.034;2022-07-23T08:16:28;11.13;;;8.23;;
25057;SDS011;13057;50.978;11.034;2022-07-23T08:18:54;13.38;;;8.27;;
25057;SDS011;13057;50.978;11.034;2022-07-23T08:21:20;10.30;;;7.63;;
25057;SDS011;13057;50.978;11.034;2022-07-23T08:23:46;12.82;;;9.57;;
25057;SDS011;13057;50.978;11.034;2022-07-23T08:26:12;12.63;;;8.52;;
25057;SDS011;13057;50.978;11.034;2022-07-23T08:28:38;11.93;;;7.97;;
25057;SDS011;13057;50.978;11.034;2022-07-23T08:31:04;12.57;;;8.60;;
25057;SDS011;13057;50.978;11.034;2022-07-23T08:33:31;12.00;;;8.43;;
25057;SDS011;13057;50.978;11.034;2022-07-23T08:35:57;11.00;;;7.57;;
25057;SDS011;13057;50.978;11.034;2022-07-23T08:38:23;12.43;;;8.13;;
25057;SDS011;13057;50.978;11.034;2022-07-23T08:40:51;12.13;;;8.10;;
25057;SDS011;13057;50.978;11.034;2022-07-23T08:43:20;11.13;;;7.88;;
25057;SDS011;13057;50.978;11.034;2022-07-23T08:45:48;12.43;;;8.35;;
25057;SDS011;13057;50.978;11.034;2022-07-23T08:48:17;12.32;;;8.10;;
25057;SDS011;13057;50.978;11.034;2022-07-23T08:50:48;10.18;;;8.18;;
25057;SDS011;13057;50.978;11.034;2022-07-23T08:53:16;12.98;;;9.00;;
25057;SDS011;13057;50.978;11.034;2022-07-23T08:55:46;11.38;;;7.65;;
25057;SDS011;13057;50.978;11.034;2022-07-23T08:58:13;11.27;;;8.60;;
25057;SDS011;13057;50.978;11.034;2022-07-23T09:00:40;10.25;;;7.38;;
25057;SDS011;13057;50.978;11.034;2022-07-23T09:03:06;10.30;;;7.68;;
25057;SDS011;13057;50.978;11.034;2022-07-23T09:05:32;14.23;;;9.18;;
25057;SDS011;13057;50.978;11.034;2022-07-23T09:08:03;13.95;;;8.05;;
25057;SDS011;13057;50.978;11.034;2022-07-23T09:10:42;11.60;;;8.60;;
25057;SDS011;13057;50.978;11.034;2022-07-23T09:13:22;13.40;;;8.38;;
25057;SDS011;13057;50.978;11.034;2022-07-23T09:15:53;12.10;;;8.38;;
25057;SDS011;13057;50.978;11.034;2022-07-23T09:18:27;12.80;;;9.20;;
25057;SDS011;13057;50.978;11.034;2022-07-23T09:21:05;12.93;;;8.13;;
25057;SDS011;13057;50.978;11.034;2022-07-23T09:23:38;13.48;;;8.98;;
25057;SDS011;13057;50.978;11.034;2022-07-23T09:26:16;11.55;;;8.50;;
25057;SDS011;13057;50.978;11.034;2022-07-23T09:28:54;14.73;;;8.63;;
25057;SDS011;13057;50.978;11.034;2022-07-23T09:31:23;17.08;;;8.82;;
25057;SDS011;13057;50.978;11.034;2022-07-23T09:33:51;15.27;;;8.15;;
25057;SDS011;13057;50.978;11.034;2022-07-23T09:36:26;14.30;;;9.23;;
25057;SDS011;13057;50.978;11.034;2022-07-23T09:38:53;12.02;;;8.50;;
25057;SDS011;13057;50.978;11.034;2022-07-23T09:41:19;12.73;;;8.38;;
25057;SDS011;13057;50.978;11.034;2022-07-23T09:43:45;12.43;;;8.85;;
25057;SDS011;13057;50.978;11.034;2022-07-23T09:48:51;14.50;;;8.50;;
25057;SDS011;13057;50.978;11.034;2022-07-23T09:51:18;20.40;;;9.98;;
25057;SDS011;13057;50.978;11.034;2022-07-23T09:53:56;13.70;;;9.73;;
25057;SDS011;13057;50.978;11.034;2022-07-23T09:56:22;19.77;;;9.82;;
25057;SDS011;13057;50.978;11.034;2022-07-23T09:58:49;15.85;;;9.10;;
25057;SDS011;13057;50.978;11.034;2022-07-23T10:01:17;19.75;;;10.18;;
25057;SDS011;13057;50.978;11.034;2022-07-23T10:03:45;13.20;;;9.80;;
25057;SDS011;13057;50.978;11.034;2022-07-23T10:06:12;12.52;;;9.40;;
25057;SDS011;13057;50.978;11.034;2022-07-23T10:08:40;14.18;;;10.05;;
25057;SDS011;13057;50.978;11.034;2022-07-23T10:11:08;12.93;;;9.18;;
25057;SDS011;13057;50.978;11.034;2022-07-23T10:13:36;12.60;;;9.13;;
25057;SDS011;13057;50.978;11.034;2022-07-23T10:16:14;10.95;;;8.65;;
25057;SDS011;13057;50.978;11.034;2022-07-23T10:18:40;16.90;;;9.80;;
25057;SDS011;13057;50.978;11.034;2022-07-23T10:21:07;11.68;;;8.00;;
25057;SDS011;13057;50.978;11.034;2022-07-23T10:23:35;13.63;;;8.55;;
25057;SDS011;13057;50.978;11.034;2022-07-23T10:26:22;13.45;;;8.45;;
25057;SDS011;13057;50.978;11.034;2022-07-23T10:29:01;16.35;;;8.70;;
25057;SDS011;13057;50.978;11.034;2022-07-23T10:31:50;14.95;;;9.20;;
25057;SDS011;13057;50.978;11.034;2022-07-23T10:34:49;14.90;;;9.50;;
25057;SDS011;13057;50.978;11.034;2022-07-23T10:37:34;14.48;;;9.88;;
25057;SDS011;13057;50.978;11.034;2022-07-23T10:40:15;15.18;;;9.82;;
25057;SDS011;13057;50.978;11.034;2022-07-23T10:42:44;16.48;;;9.40;;
25057;SDS011;13057;50.978;11.034;2022-07-23T10:45:21;14.50;;;9.25;;
25057;SDS011;13057;50.978;11.034;2022-07-23T10:47:50;15.15;;;10.05;;
25057;SDS011;13057;50.978;11.034;2022-07-23T10:50:23;13.43;;;9.82;;
25057;SDS011;13057;50.978;11.034;2022-07-23T10:55:39;16.70;;;11.10;;
25057;SDS011;13057;50.978;11.034;2022-07-23T10:58:08;17.33;;;10.05;;
25057;SDS011;13057;50.978;11.034;2022-07-23T11:00:35;19.45;;;10.55;;
25057;SDS011;13057;50.978;11.034;2022-07-23T11:03:03;12.77;;;9.85;;
25057;SDS011;13057;50.978;11.034;2022-07-23T11:05:49;13.85;;;9.52;;
25057;SDS011;13057;50.978;11.034;2022-07-23T11:08:18;19.10;;;9.38;;
25057;SDS011;13057;50.978;11.034;2022-07-23T11:10:51;14.20;;;8.68;;
25057;SDS011;13057;50.978;11.034;2022-07-23T11:13:36;13.90;;;9.95;;
25057;SDS011;13057;50.978;11.034;2022-07-23T11:16:05;14.03;;;9.93;;
25057;SDS011;13057;50.978;11.034;2022-07-23T11:24:09;13.80;;;8.57;;
25057;SDS011;13057;50.978;11.034;2022-07-23T11:26:47;12.50;;;9.30;;
25057;SDS011;13057;50.978;11.034;2022-07-23T11:32:05;11.07;;;8.07;;
25057;SDS011;13057;50.978;11.034;2022-07-23T11:34:34;12.93;;;8.68;;
25057;SDS011;13057;50.978;11.034;2022-07-23T11:37:08;11.90;;;8.38;;
25057;SDS011;13057;50.978;11.034;2022-07-23T11:39:36;11.77;;;8.77;;
25057;SDS011;13057;50.978;11.034;2022-07-23T11:42:03;13.60;;;9.00;;
25057;SDS011;13057;50.978;11.034;2022-07-23T11:44:32;15.82;;;9.48;;
25057;SDS011;13057;50.978;11.034;2022-07-23T11:47:00;14.23;;;9.50;;
25057;SDS011;13057;50.978;11.034;2022-07-23T11:49:30;13.43;;;8.30;;
25057;SDS011;13057;50.978;11.034;2022-07-23T11:52:04;13.90;;;8.63;;
25057;SDS011;13057;50.978;11.034;2022-07-23T11:54:35;12.75;;;8.95;;
25057;SDS011;13057;50.978;11.034;2022-07-23T11:57:11;13.02;;;9.20;;
25057;SDS011;13057;50.978;11.034;2022-07-23T11:59:37;11.00;;;8.40;;
25057;SDS011;13057;50.978;11.034;2022-07-23T12:02:05;13.02;;;8.45;;
25057;SDS011;13057;50.978;11.034;2022-07-23T12:04:38;13.48;;;8.65;;
25057;SDS011;13057;50.978;11.034;2022-07-23T12:09:59;11.90;;;8.23;;
25057;SDS011;13057;50.978;11.034;2022-07-23T12:12:34;13.05;;;9.13;;
25057;SDS011;13057;50.978;11.034;2022-07-23T12:15:02;15.68;;;8.15;;
25057;SDS011;13057;50.978;11.034;2022-07-23T12:17:31;11.13;;;8.20;;
25057;SDS011;13057;50.978;11.034;2022-07-23T12:19:59;12.18;;;8.38;;
25057;SDS011;13057;50.978;11.034;2022-07-23T12:22:33;10.25;;;8.13;;
25057;SDS011;13057;50.978;11.034;2022-07-23T12:25:03;10.85;;;8.05;;
25057;SDS011;13057;50.978;11.034;2022-07-23T12:27:32;9.05;;;6.85;;
25057;SDS011;13057;50.978;11.034;2022-07-23T12:29:59;13.45;;;8.75;;
25057;SDS011;13057;50.978;11.034;2022-07-23T12:32:42;12.15;;;8.30;;
25057;SDS011;13057;50.978;11.034;2022-07-23T12:35:09;11.13;;;8.48;;
25057;SDS011;13057;50.978;11.034;2022-07-23T12:37:37;11.68;;;7.50;;
25057;SDS011;13057;50.978;11.034;2022-07-23T12:42:45;11.90;;;7.38;;
25057;SDS011;13057;50.978;11.034;2022-07-23T12:45:12;9.55;;;6.95;;
25057;SDS011;13057;50.978;11.034;2022-07-23T12:53:05;10.85;;;6.93;;
25057;SDS011;13057;50.978;11.034;2022-07-23T12:55:37;9.35;;;6.53;;
25057;SDS011;13057;50.978;11.034;2022-07-23T12:58:05;8.65;;;6.15;;
25057;SDS011;13057;50.978;11.034;2022-07-23T13:00:48;10.40;;;7.30;;
25057;SDS011;13057;50.978;11.034;2022-07-23T13:03:20;12.32;;;6.82;;
25057;SDS011;13057;50.978;11.034;2022-07-23T13:05:47;9.07;;;6.53;;
25057;SDS011;13057;50.978;11.034;2022-07-23T13:08:13;8.80;;;6.65;;
25057;SDS011;13057;50.978;11.034;2022-07-23T13:10:39;10.10;;;6.07;;
25057;SDS011;13057;50.978;11.034;2022-07-23T13:13:09;7.80;;;5.65;;
25057;SDS011;13057;50.978;11.034;2022-07-23T13:15:36;10.00;;;6.50;;
25057;SDS011;13057;50.978;11.034;2022-07-23T13:18:01;7.28;;;5.70;;
25057;SDS011;13057;50.978;11.034;2022-07-23T13:20:28;9.13;;;5.80;;
25057;SDS011;13057;50.978;11.034;2022-07-23T13:22:54;8.30;;;6.00;;
25057;SDS011;13057;50.978;11.034;2022-07-23T13:25:19;8.35;;;5.57;;
25057;SDS011;13057;50.978;11.034;2022-07-23T13:27:45;6.22;;;4.93;;
25057;SDS011;13057;50.978;11.034;2022-07-23T13:30:11;9.18;;;5.63;;
25057;SDS011;13057;50.978;11.034;2022-07-23T13:32:37;9.00;;;5.03;;
25057;SDS011;13057;50.978;11.034;2022-07-23T13:35:03;7.93;;;4.53;;
25057;SDS011;13057;50.978;11.034;2022-07-23T13:37:29;6.45;;;4.93;;
25057;SDS011;13057;50.978;11.034;2022-07-23T13:39:55;7.53;;;4.70;;
25057;SDS011;13057;50.978;11.034;2022-07-23T13:42:21;7.50;;;5.03;;
25057;SDS011;13057;50.978;11.034;2022-07-23T13:44:46;6.97;;;5.45;;
25057;SDS011;13057;50.978;11.034;2022-07-23T13:47:12;9.50;;;5.43;;
25057;SDS011;13057;50.978;11.034;2022-07-23T13:49:38;6.90;;;4.80;;
25057;SDS011;13057;50.978;11.034;2022-07-23T13:52:04;7.88;;;5.13;;
25057;SDS011;13057;50.978;11.034;2022-07-23T13:54:30;10.48;;;5.32;;
25057;SDS011;13057;50.978;11.034;2022-07-23T13:56:56;15.80;;;5.65;;
25057;SDS011;13057;50.978;11.034;2022-07-23T13:59:22;6.10;;;4.32;;
25057;SDS011;13057;50.978;11.034;2022-07-23T14:01:48;5.85;;;4.22;;
25057;SDS011;13057;50.978;11.034;2022-07-23T14:04:14;5.65;;;3.90;;
25057;SDS011;13057;50.978;11.034;2022-07-23T14:06:40;5.90;;;3.80;;
25057;SDS011;13057;50.978;11.034;2022-07-23T14:09:06;5.75;;;4.57;;
25057;SDS011;13057;50.978;11.034;2022-07-23T14:11:32;5.57;;;4.40;;
25057;SDS011;13057;50.978;11.034;2022-07-23T14:13:58;12.25;;;5.00;;
25057;SDS011;13057;50.978;11.034;2022-07-23T14:16:25;6.28;;;4.20;;
25057;SDS011;13057;50.978;11.034;2022-07-23T14:18:52;6.85;;;4.32;;
25057;SDS011;13057;50.978;11.034;2022-07-23T14:21:18;6.90;;;4.88;;
25057;SDS011;13057;50.978;11.034;2022-07-23T14:23:43;8.15;;;4.68;;
25057;SDS011;13057;50.978;11.034;2022-07-23T14:26:09;5.97;;;4.03;;
25057;SDS011;13057;50.978;11.034;2022-07-23T14:28:35;6.03;;;4.15;;
25057;SDS011;13057;50.978;11.034;2022-07-23T14:31:01;5.75;;;3.85;;
25057;SDS011;13057;50.978;11.034;2022-07-23T14:33:27;6.15;;;4.22;;
25057;SDS011;13057;50.978;11.034;2022-07-23T14:35:53;5.28;;;3.75;;
25057;SDS011;13057;50.978;11.034;2022-07-23T14:38:19;6.18;;;4.25;;
25057;SDS011;13057;50.978;11.034;2022-07-23T14:40:45;5.05;;;3.42;;
25057;SDS011;13057;50.978;11.034;2022-07-23T14:43:11;6.35;;;3.90;;
25057;SDS011;13057;50.978;11.034;2022-07-23T14:45:36;5.85;;;3.65;;
25057;SDS011;13057;50.978;11.034;2022-07-23T14:48:03;5.90;;;4.05;;
25057;SDS011;13057;50.978;11.034;2022-07-23T14:50:29;4.55;;;3.80;;